Time;durP1;ratioP1;P1;durP2;ratioP2;P2;SDS_P1;SDS_P2;PMS_P1;PMS_P2;Temp;Humidity;BMP_temperature;BMP_pressure;BME280_temperature;BME280_humidity;BME280_pressure;Samples;Min_cycle;Max_cycle;Signal;HPM_P1;HPM_P2
2022/04/08 00:00:14;;;;;;;2.38;1.00;;;9.80;82.70;;;;;;4992328;28;20052;-84
2022/04/08 00:02:41;;;;;;;1.73;0.77;;;9.80;82.70;;;;;;4995976;28;20080;-84
2022/04/08 00:05:10;;;;;;;1.93;0.67;;;9.70;82.80;;;;;;4997562;28;20674;-83
2022/04/08 00:07:35;;;;;;;2.47;0.90;;;9.70;82.70;;;;;;4982561;28;20030;-83
2022/04/08 00:10:03;;;;;;;2.03;0.88;;;9.70;82.70;;;;;;4993243;28;20032;-84
2022/04/08 00:12:29;;;;;;;3.00;0.90;;;9.70;82.90;;;;;;5000841;28;20026;-84
2022/04/08 00:14:55;;;;;;;1.70;0.90;;;9.60;82.90;;;;;;4991307;28;20034;-84
2022/04/08 00:17:20;;;;;;;2.15;0.80;;;9.60;83.00;;;;;;5013539;28;20644;-84
2022/04/08 00:19:46;;;;;;;3.33;1.10;;;9.50;83.00;;;;;;5004161;28;20482;-84
2022/04/08 00:22:12;;;;;;;1.30;0.60;;;9.50;83.20;;;;;;4998116;28;20855;-84
2022/04/08 00:24:37;;;;;;;2.57;0.80;;;9.50;83.40;;;;;;4981508;28;20021;-84
2022/04/08 00:27:03;;;;;;;2.78;0.80;;;9.40;83.40;;;;;;4975179;28;20703;-84
2022/04/08 00:29:29;;;;;;;2.27;1.10;;;9.40;83.40;;;;;;4975225;28;20036;-85
2022/04/08 00:31:57;;;;;;;2.20;0.77;;;9.40;83.50;;;;;;4996962;28;20034;-83
2022/04/08 00:34:25;;;;;;;2.25;0.85;;;9.40;84.30;;;;;;4991895;28;20286;-84
2022/04/08 00:36:50;;;;;;;0.97;0.63;;;9.30;83.50;;;;;;4980792;28;20025;-85
2022/04/08 00:39:16;;;;;;;2.38;0.90;;;9.30;83.60;;;;;;4984534;28;20279;-83
2022/04/08 00:41:42;;;;;;;1.80;0.80;;;9.20;83.50;;;;;;4975154;28;20089;-84
2022/04/08 00:44:07;;;;;;;3.03;0.90;;;9.20;83.70;;;;;;5020130;28;20053;-84
2022/04/08 00:46:33;;;;;;;1.93;0.83;;;9.10;83.80;;;;;;4996059;28;20049;-84
2022/04/08 00:48:59;;;;;;;1.38;0.70;;;9.10;83.90;;;;;;5001456;28;20038;-84
2022/04/08 00:51:25;;;;;;;2.13;1.10;;;9.10;84.00;;;;;;5006858;28;20386;-84
2022/04/08 00:53:51;;;;;;;1.27;0.70;;;9.10;84.00;;;;;;5009472;28;20478;-84
2022/04/08 00:56:21;;;;;;;1.60;0.70;;;9.00;84.00;;;;;;4989804;28;20065;-84
2022/04/08 00:58:47;;;;;;;1.10;0.80;;;9.00;84.10;;;;;;5008670;28;20478;-85
2022/04/08 01:01:13;;;;;;;2.57;0.87;;;9.00;84.20;;;;;;4992913;28;20215;-86
2022/04/08 01:03:39;;;;;;;2.85;0.82;;;9.00;84.40;;;;;;5008115;28;20467;-86
2022/04/08 01:06:04;;;;;;;2.07;0.80;;;8.90;84.50;;;;;;4993038;28;20025;-85
2022/04/08 01:08:33;;;;;;;2.22;0.75;;;8.90;84.50;;;;;;4992109;28;20026;-85
2022/04/08 01:10:59;;;;;;;1.85;0.80;;;8.90;84.50;;;;;;4994569;28;20433;-85
2022/04/08 01:13:25;;;;;;;1.63;0.60;;;8.90;84.80;;;;;;5015624;28;20034;-84
2022/04/08 01:15:51;;;;;;;2.13;0.90;;;8.90;84.80;;;;;;4987802;28;20030;-84
2022/04/08 01:18:16;;;;;;;1.37;0.67;;;8.90;84.90;;;;;;4990981;28;20029;-86
2022/04/08 01:20:42;;;;;;;2.00;0.80;;;8.80;85.00;;;;;;5018482;28;20038;-84
2022/04/08 01:23:08;;;;;;;6.03;1.37;;;8.80;85.00;;;;;;5003942;28;20053;-85
2022/04/08 01:25:33;;;;;;;3.40;0.93;;;8.80;85.00;;;;;;5009899;28;20026;-87
2022/04/08 01:27:59;;;;;;;3.00;0.80;;;8.80;85.10;;;;;;4989780;28;20426;-86
2022/04/08 01:30:25;;;;;;;1.15;0.68;;;8.80;85.10;;;;;;5029344;28;20475;-86
2022/04/08 01:32:50;;;;;;;2.30;0.70;;;8.70;85.00;;;;;;4999338;28;20345;-86
2022/04/08 01:35:16;;;;;;;2.35;1.17;;;8.70;85.10;;;;;;4989124;28;20874;-86
2022/04/08 01:37:42;;;;;;;2.33;0.85;;;8.70;85.10;;;;;;5002873;28;20058;-86
2022/04/08 01:40:09;;;;;;;2.87;0.90;;;8.70;85.00;;;;;;4986861;28;20032;-86
2022/04/08 01:42:35;;;;;;;1.58;0.82;;;8.70;85.20;;;;;;4990496;28;20038;-86
2022/04/08 01:45:00;;;;;;;1.20;0.80;;;8.60;85.10;;;;;;4993293;28;20084;-86
2022/04/08 01:47:26;;;;;;;1.37;0.70;;;8.60;85.10;;;;;;5022526;28;20060;-86
2022/04/08 01:49:51;;;;;;;2.92;0.75;;;8.60;85.20;;;;;;4974727;28;20022;-86
2022/04/08 01:52:17;;;;;;;0.67;0.67;;;8.50;85.10;;;;;;4985433;28;20034;-86
2022/04/08 01:54:43;;;;;;;2.53;0.90;;;8.50;86.10;;;;;;4996593;28;20030;-86
2022/04/08 01:57:09;;;;;;;1.50;0.70;;;8.50;85.60;;;;;;5001626;28;20238;-85
2022/04/08 01:59:35;;;;;;;1.70;1.00;;;8.50;85.90;;;;;;5010800;28;20109;-84
2022/04/08 02:02:01;;;;;;;1.40;0.90;;;8.50;86.20;;;;;;5000787;28;20055;-85
2022/04/08 02:04:27;;;;;;;2.25;1.00;;;8.50;86.40;;;;;;5028420;28;20028;-86
2022/04/08 02:06:53;;;;;;;1.73;0.75;;;8.50;86.50;;;;;;5007344;28;20026;-85
2022/04/08 02:09:18;;;;;;;3.03;1.00;;;8.50;86.60;;;;;;4986355;28;20238;-86
2022/04/08 02:11:45;;;;;;;2.38;0.90;;;8.50;86.40;;;;;;4990850;28;20049;-85
2022/04/08 02:14:10;;;;;;;1.70;0.82;;;8.50;86.30;;;;;;4983906;28;20310;-87
2022/04/08 02:16:36;;;;;;;3.17;1.00;;;8.50;86.20;;;;;;5024566;28;20506;-86
2022/04/08 02:19:02;;;;;;;1.63;0.80;;;8.50;85.90;;;;;;5008160;28;20042;-86
2022/04/08 02:21:28;;;;;;;1.92;0.90;;;8.50;86.10;;;;;;4975043;28;20019;-86
2022/04/08 02:23:54;;;;;;;3.03;0.80;;;8.50;86.10;;;;;;5000778;28;20026;-86
2022/04/08 02:26:20;;;;;;;2.85;0.90;;;8.40;86.10;;;;;;4963022;28;20120;-85
2022/04/08 02:28:46;;;;;;;1.88;0.95;;;8.50;86.10;;;;;;5008576;28;20128;-86
2022/04/08 02:31:13;;;;;;;1.88;0.82;;;8.40;86.10;;;;;;4972626;28;20771;-85
2022/04/08 02:33:39;;;;;;;2.27;0.97;;;8.40;86.20;;;;;;5007297;28;20490;-86
2022/04/08 02:36:06;;;;;;;1.25;0.90;;;8.30;86.30;;;;;;4987594;28;22379;-86
2022/04/08 02:38:31;;;;;;;1.90;1.08;;;8.30;86.20;;;;;;4997877;28;20027;-86
2022/04/08 02:40:57;;;;;;;1.98;0.82;;;8.30;86.30;;;;;;5010727;28;20103;-87
2022/04/08 02:43:23;;;;;;;1.40;1.00;;;8.30;86.30;;;;;;4980964;28;20212;-86
2022/04/08 02:45:49;;;;;;;1.65;0.80;;;8.20;86.20;;;;;;4984588;28;20109;-87
2022/04/08 02:48:15;;;;;;;2.53;0.88;;;8.20;86.20;;;;;;5016578;28;20387;-86
2022/04/08 02:50:42;;;;;;;1.43;0.70;;;8.20;87.10;;;;;;5009686;28;20537;-86
2022/04/08 02:53:07;;;;;;;0.82;0.80;;;8.20;86.30;;;;;;4990416;28;20250;-86
2022/04/08 02:55:35;;;;;;;2.13;1.20;;;8.20;86.40;;;;;;5009817;28;20062;-86
2022/04/08 02:58:01;;;;;;;1.60;0.75;;;8.20;86.40;;;;;;4997956;28;20030;-87
2022/04/08 03:00:27;;;;;;;1.53;0.90;;;8.10;86.30;;;;;;5001296;28;20030;-86
2022/04/08 03:02:53;;;;;;;2.15;0.80;;;8.10;86.40;;;;;;4984065;28;20395;-86
2022/04/08 03:05:18;;;;;;;1.50;0.90;;;8.10;86.60;;;;;;5004655;28;20409;-86
2022/04/08 03:07:44;;;;;;;1.57;0.87;;;8.10;86.70;;;;;;4976816;28;20053;-86
2022/04/08 03:10:11;;;;;;;1.83;1.00;;;8.00;86.70;;;;;;4987663;28;20112;-86
2022/04/08 03:12:36;;;;;;;1.52;0.85;;;8.00;86.80;;;;;;5003466;28;20048;-86
2022/04/08 03:15:04;;;;;;;1.97;1.00;;;8.00;86.90;;;;;;4971080;28;20118;-86
2022/04/08 03:17:30;;;;;;;2.38;0.80;;;8.00;86.90;;;;;;5003174;28;20037;-86
2022/04/08 03:19:56;;;;;;;2.50;1.10;;;7.90;86.90;;;;;;5000958;28;20394;-86
2022/04/08 03:22:22;;;;;;;1.23;0.80;;;7.90;87.10;;;;;;5006993;28;20029;-86
2022/04/08 03:24:48;;;;;;;2.55;0.88;;;7.90;87.20;;;;;;4978202;28;20033;-86
2022/04/08 03:27:14;;;;;;;2.22;1.10;;;7.90;87.30;;;;;;5000983;28;20196;-86
2022/04/08 03:29:40;;;;;;;2.30;0.90;;;7.80;87.20;;;;;;4991828;28;20026;-86
2022/04/08 03:32:06;;;;;;;2.30;0.90;;;7.80;87.30;;;;;;4987525;28;20527;-86
2022/04/08 03:34:32;;;;;;;2.25;1.17;;;7.80;87.30;;;;;;4984777;28;20029;-86
2022/04/08 03:36:58;;;;;;;1.87;1.00;;;7.80;87.20;;;;;;5007166;28;20095;-86
2022/04/08 03:39:23;;;;;;;1.77;1.02;;;7.80;87.20;;;;;;4992482;28;20025;-86
2022/04/08 03:41:49;;;;;;;1.50;1.00;;;7.80;87.30;;;;;;5000822;28;20103;-86
2022/04/08 03:44:15;;;;;;;1.77;0.93;;;7.80;87.30;;;;;;4982042;28;20564;-86
2022/04/08 03:46:41;;;;;;;1.40;0.98;;;7.80;87.40;;;;;;4988094;28;20026;-86
2022/04/08 03:49:14;;;;;;;2.35;1.08;;;7.70;87.50;;;;;;4989128;28;20040;-86
2022/04/08 03:51:40;;;;;;;3.27;1.20;;;7.70;87.90;;;;;;4987724;28;20029;-86
2022/04/08 03:54:07;;;;;;;2.38;1.23;;;7.70;87.70;;;;;;4987293;28;20560;-86
2022/04/08 03:56:34;;;;;;;1.92;1.20;;;7.60;87.70;;;;;;4998686;28;20030;-86
2022/04/08 03:58:59;;;;;;;4.70;1.45;;;7.60;87.70;;;;;;5003133;28;20037;-86
2022/04/08 04:01:25;;;;;;;2.57;1.10;;;7.60;87.70;;;;;;4990641;28;20022;-86
2022/04/08 04:03:50;;;;;;;2.20;1.38;;;7.60;87.70;;;;;;5007406;28;20025;-86
2022/04/08 04:06:16;;;;;;;1.90;1.30;;;7.60;87.80;;;;;;4982632;28;20190;-86
2022/04/08 04:08:42;;;;;;;2.78;1.38;;;7.60;87.70;;;;;;5002914;28;20034;-86
2022/04/08 04:11:07;;;;;;;2.20;1.30;;;7.60;87.80;;;;;;4993353;28;20057;-86
2022/04/08 04:13:33;;;;;;;3.20;1.40;;;7.60;88.00;;;;;;5002720;28;20026;-86
2022/04/08 04:15:59;;;;;;;1.90;1.03;;;7.60;88.00;;;;;;4990029;28;20032;-86
2022/04/08 04:18:26;;;;;;;2.45;1.30;;;7.50;88.10;;;;;;4999667;28;20022;-86
2022/04/08 04:20:52;;;;;;;4.23;1.87;;;7.50;88.10;;;;;;4980495;28;20238;-86
2022/04/08 04:23:18;;;;;;;4.07;1.60;;;7.50;88.30;;;;;;5021055;28;20361;-86
2022/04/08 04:25:43;;;;;;;2.27;1.40;;;7.50;88.50;;;;;;5024367;28;20026;-86
2022/04/08 04:28:09;;;;;;;2.95;1.40;;;7.50;88.50;;;;;;4991448;28;20054;-88
2022/04/08 04:30:35;;;;;;;4.13;1.37;;;7.50;88.60;;;;;;5011585;28;20461;-85
2022/04/08 04:33:01;;;;;;;3.40;1.67;;;7.50;88.60;;;;;;4973643;28;20038;-85
2022/04/08 04:35:27;;;;;;;3.57;1.40;;;7.50;88.60;;;;;;5002213;28;20041;-85
2022/04/08 04:37:53;;;;;;;3.53;1.40;;;7.50;88.80;;;;;;5007079;28;20037;-87
2022/04/08 04:40:20;;;;;;;2.75;1.40;;;7.50;88.80;;;;;;5014993;28;20206;-86
2022/04/08 04:42:45;;;;;;;3.17;1.50;;;7.50;88.80;;;;;;4998927;28;20037;-87
2022/04/08 04:45:13;;;;;;;3.15;1.58;;;7.50;88.80;;;;;;4997173;28;20022;-86
2022/04/08 04:47:38;;;;;;;2.08;1.17;;;7.50;88.80;;;;;;4995133;28;20044;-85
2022/04/08 04:50:05;;;;;;;3.10;1.30;;;7.40;88.80;;;;;;5006655;28;20021;-85
2022/04/08 04:52:31;;;;;;;3.92;1.30;;;7.40;88.80;;;;;;5011202;28;20112;-85
2022/04/08 04:54:56;;;;;;;2.60;1.30;;;7.40;88.80;;;;;;5002336;28;20160;-85
2022/04/08 04:57:23;;;;;;;2.33;1.30;;;7.40;88.90;;;;;;4989357;28;20706;-86
2022/04/08 04:59:48;;;;;;;2.42;1.40;;;7.40;89.10;;;;;;4993957;28;20497;-86
2022/04/08 05:02:14;;;;;;;3.20;1.30;;;7.40;89.20;;;;;;4990910;28;20022;-86
2022/04/08 05:04:39;;;;;;;2.40;1.20;;;7.40;89.30;;;;;;4978978;28;20131;-85
2022/04/08 05:07:05;;;;;;;3.23;1.30;;;7.40;89.40;;;;;;5000808;28;20129;-87
2022/04/08 05:09:31;;;;;;;1.83;1.10;;;7.40;89.50;;;;;;4984372;28;20241;-85
2022/04/08 05:11:56;;;;;;;6.13;1.40;;;7.40;89.50;;;;;;5008478;28;20079;-85
2022/04/08 05:14:24;;;;;;;2.23;1.30;;;7.40;89.50;;;;;;5001539;28;20061;-85
2022/04/08 05:16:50;;;;;;;2.00;1.30;;;7.30;89.50;;;;;;4977168;28;20279;-88
2022/04/08 05:19:16;;;;;;;2.42;1.38;;;7.40;89.60;;;;;;4974808;28;20052;-86
2022/04/08 05:21:42;;;;;;;2.65;1.30;;;7.30;89.70;;;;;;4985336;28;20018;-86
2022/04/08 05:24:08;;;;;;;3.55;1.30;;;7.40;89.90;;;;;;4980154;28;20029;-86
2022/04/08 05:26:34;;;;;;;3.27;1.40;;;7.30;89.90;;;;;;4988172;28;20285;-85
2022/04/08 05:28:59;;;;;;;5.75;1.40;;;7.40;90.00;;;;;;4994807;28;20052;-85
2022/04/08 05:31:25;;;;;;;2.67;1.07;;;7.40;90.10;;;;;;4997382;28;20061;-85
2022/04/08 05:33:50;;;;;;;1.73;1.13;;;7.40;90.10;;;;;;5000561;28;20045;-85
2022/04/08 05:36:16;;;;;;;1.80;1.20;;;7.40;90.20;;;;;;5002254;28;20037;-86
2022/04/08 05:38:42;;;;;;;2.13;1.10;;;7.40;90.20;;;;;;5004370;28;20691;-85
2022/04/08 05:41:07;;;;;;;2.08;1.20;;;7.50;90.30;;;;;;5025830;28;20029;-87
2022/04/08 05:43:33;;;;;;;2.37;1.20;;;7.50;90.30;;;;;;4976852;28;20084;-88
2022/04/08 05:45:59;;;;;;;2.00;1.20;;;7.50;90.30;;;;;;5020422;28;20083;-87
2022/04/08 05:48:25;;;;;;;2.00;1.10;;;7.50;90.30;;;;;;4975560;28;20036;-87
2022/04/08 05:50:50;;;;;;;3.03;1.73;;;7.50;90.30;;;;;;5012835;28;20112;-87
2022/04/08 05:53:16;;;;;;;2.40;1.50;;;7.60;90.40;;;;;;4992911;28;20466;-86
2022/04/08 05:55:42;;;;;;;3.55;1.67;;;7.60;90.50;;;;;;4999272;28;20718;-86
2022/04/08 05:58:08;;;;;;;2.45;1.42;;;7.60;90.50;;;;;;5004147;28;20418;-86
2022/04/08 06:00:35;;;;;;;1.63;1.33;;;7.70;90.50;;;;;;5008799;28;20105;-86
2022/04/08 06:03:01;;;;;;;2.10;1.40;;;7.70;90.60;;;;;;4996813;28;20030;-87
2022/04/08 06:05:27;;;;;;;2.45;1.30;;;7.70;90.60;;;;;;4971351;28;20415;-86
2022/04/08 06:07:54;;;;;;;3.70;1.33;;;7.80;90.60;;;;;;4974494;28;20165;-86
2022/04/08 06:10:23;;;;;;;2.17;1.50;;;7.80;90.50;;;;;;4994870;28;20065;-86
2022/04/08 06:12:49;;;;;;;1.63;1.15;;;7.80;90.50;;;;;;5005023;28;20033;-86
2022/04/08 06:15:16;;;;;;;2.40;1.23;;;7.90;90.70;;;;;;5004752;28;20474;-86
2022/04/08 06:17:42;;;;;;;2.25;1.25;;;7.90;90.70;;;;;;4984680;28;20601;-86
2022/04/08 06:20:09;;;;;;;1.88;1.20;;;8.00;90.80;;;;;;4991078;28;20036;-86
2022/04/08 06:22:40;;;;;;;2.88;1.58;;;8.00;90.80;;;;;;4968516;28;21862;-86
2022/04/08 06:25:11;;;;;;;2.00;1.10;;;8.00;90.80;;;;;;5023877;28;20014;-86
2022/04/08 06:27:37;;;;;;;3.22;1.50;;;8.10;90.70;;;;;;5003023;28;20409;-86
2022/04/08 06:30:07;;;;;;;1.50;1.20;;;8.20;90.80;;;;;;5005204;28;20941;-86
2022/04/08 06:32:33;;;;;;;2.03;1.30;;;8.20;90.70;;;;;;4961395;28;20190;-86
2022/04/08 06:34:59;;;;;;;3.80;1.50;;;8.20;90.70;;;;;;5014272;28;20040;-86
2022/04/08 06:37:30;;;;;;;4.03;1.55;;;8.20;90.70;;;;;;4987635;28;20042;-86
2022/04/08 06:40:01;;;;;;;3.10;1.50;;;8.20;90.30;;;;;;4989787;28;20085;-86
2022/04/08 06:42:27;;;;;;;3.58;1.58;;;8.30;90.50;;;;;;4998283;28;20448;-86
2022/04/08 06:44:52;;;;;;;3.17;1.50;;;8.30;90.60;;;;;;4987523;28;20116;-86
2022/04/08 06:47:18;;;;;;;1.90;1.30;;;8.30;90.70;;;;;;4978879;28;20034;-86
2022/04/08 06:49:46;;;;;;;3.38;1.20;;;8.40;90.70;;;;;;4976257;28;20155;-86
2022/04/08 06:52:13;;;;;;;2.43;1.10;;;8.40;90.60;;;;;;4989770;28;20030;-86
2022/04/08 06:54:39;;;;;;;2.10;1.10;;;8.40;90.60;;;;;;4971643;28;20295;-86
2022/04/08 06:57:05;;;;;;;4.72;1.70;;;8.40;90.60;;;;;;4985243;28;20105;-86
2022/04/08 06:59:31;;;;;;;3.15;1.70;;;8.40;90.70;;;;;;5016524;28;20643;-86
2022/04/08 07:01:56;;;;;;;5.27;1.83;;;8.50;90.50;;;;;;4992089;28;20478;-86
2022/04/08 07:04:22;;;;;;;1.73;1.10;;;8.50;90.60;;;;;;5004276;28;20395;-86
2022/04/08 07:06:48;;;;;;;2.47;1.40;;;8.50;90.60;;;;;;4977131;28;20021;-86
2022/04/08 07:09:13;;;;;;;3.07;1.30;;;8.50;90.60;;;;;;4995163;28;20424;-86
2022/04/08 07:11:39;;;;;;;2.05;1.20;;;8.60;90.80;;;;;;4966616;28;20108;-86
2022/04/08 07:14:05;;;;;;;2.58;1.30;;;8.60;90.80;;;;;;4992476;28;20038;-86
2022/04/08 07:16:30;;;;;;;2.17;1.10;;;8.60;90.80;;;;;;4998185;28;20053;-86
2022/04/08 07:18:56;;;;;;;2.17;1.30;;;8.70;90.90;;;;;;4998718;28;20073;-86
2022/04/08 07:21:22;;;;;;;2.97;1.53;;;8.70;91.10;;;;;;4972855;28;20037;-86
2022/04/08 07:23:48;;;;;;;2.60;1.40;;;8.80;91.10;;;;;;4987133;28;20504;-86
2022/04/08 07:26:14;;;;;;;3.55;1.45;;;8.80;91.10;;;;;;4974106;28;20153;-86
2022/04/08 07:28:40;;;;;;;2.10;1.20;;;8.90;91.10;;;;;;5003614;28;20514;-86
2022/04/08 07:31:05;;;;;;;1.95;1.10;;;8.90;91.10;;;;;;4981154;28;20143;-86
2022/04/08 07:33:31;;;;;;;3.23;1.50;;;9.00;91.10;;;;;;4990176;28;20037;-86
2022/04/08 07:35:58;;;;;;;2.38;1.20;;;9.00;91.20;;;;;;4986782;28;20035;-86
2022/04/08 07:38:24;;;;;;;2.30;1.23;;;9.10;91.10;;;;;;5001869;28;20025;-86
2022/04/08 07:40:50;;;;;;;3.58;1.63;;;9.10;91.10;;;;;;4995321;28;20071;-86
2022/04/08 07:43:16;;;;;;;3.17;1.33;;;9.20;91.10;;;;;;4978283;28;20212;-86
2022/04/08 07:45:43;;;;;;;2.23;1.30;;;9.30;91.10;;;;;;4983265;28;20064;-86
2022/04/08 07:48:09;;;;;;;2.80;1.10;;;9.30;91.10;;;;;;4971150;28;21782;-86
2022/04/08 07:50:37;;;;;;;3.00;1.30;;;9.30;91.20;;;;;;4972549;28;20112;-86
2022/04/08 07:53:03;;;;;;;1.92;1.00;;;9.40;91.30;;;;;;4986878;28;20679;-86
2022/04/08 07:55:29;;;;;;;4.72;1.13;;;9.50;91.30;;;;;;4983455;28;20042;-86
2022/04/08 07:57:55;;;;;;;2.23;0.97;;;9.50;91.30;;;;;;4983667;28;20303;-87
2022/04/08 08:00:25;;;;;;;2.65;1.10;;;9.50;91.20;;;;;;5003919;28;20030;-87
2022/04/08 08:02:51;;;;;;;2.20;1.15;;;9.60;91.10;;;;;;4991493;28;20037;-86
2022/04/08 08:05:20;;;;;;;2.38;1.10;;;9.70;91.00;;;;;;5006579;28;20107;-86
2022/04/08 08:07:55;;;;;;;2.10;1.00;;;9.70;91.00;;;;;;4972259;28;20048;-87
2022/04/08 08:10:24;;;;;;;1.10;0.90;;;9.80;90.60;;;;;;4990338;28;20048;-86
2022/04/08 08:12:51;;;;;;;3.45;1.00;;;9.80;90.60;;;;;;4962035;28;20038;-86
2022/04/08 08:15:18;;;;;;;1.80;1.17;;;9.80;90.90;;;;;;4988202;28;20053;-86
2022/04/08 08:17:45;;;;;;;2.25;1.05;;;9.80;91.00;;;;;;4993366;28;20045;-86
2022/04/08 08:20:12;;;;;;;2.47;0.97;;;9.90;91.00;;;;;;4984219;28;20285;-86
2022/04/08 08:22:39;;;;;;;1.85;0.90;;;9.90;91.00;;;;;;5000644;28;20116;-86
2022/04/08 08:25:06;;;;;;;3.00;1.10;;;9.90;91.10;;;;;;4982103;28;20593;-86
2022/04/08 08:27:42;;;;;;;2.22;0.80;;;10.00;91.20;;;;;;5020271;28;20438;-86
2022/04/08 08:30:10;;;;;;;1.73;0.98;;;10.10;90.80;;;;;;4963411;28;20240;-86
2022/04/08 08:32:40;;;;;;;2.27;1.07;;;10.10;91.20;;;;;;5006240;28;20030;-86
2022/04/08 08:35:07;;;;;;;1.75;1.00;;;10.20;91.20;;;;;;4971950;28;21004;-86
2022/04/08 08:37:33;;;;;;;1.10;0.80;;;10.30;91.30;;;;;;5001638;28;20037;-87
2022/04/08 08:39:59;;;;;;;2.53;0.87;;;10.40;91.30;;;;;;4985173;28;20030;-86
2022/04/08 08:42:25;;;;;;;1.20;0.80;;;10.50;91.10;;;;;;5021814;28;20284;-86
2022/04/08 08:44:52;;;;;;;3.55;1.08;;;10.50;91.10;;;;;;4959939;28;20474;-87
2022/04/08 08:47:18;;;;;;;2.80;1.02;;;10.60;91.00;;;;;;4984786;28;20029;-86
2022/04/08 08:49:50;;;;;;;2.10;1.00;;;10.60;90.80;;;;;;5004862;28;20177;-85
2022/04/08 08:52:19;;;;;;;1.58;0.80;;;10.70;90.80;;;;;;4995646;28;20033;-86
2022/04/08 08:54:49;;;;;;;2.47;1.00;;;10.70;90.40;;;;;;4982164;28;20029;-86
2022/04/08 08:57:16;;;;;;;1.95;1.10;;;10.80;90.40;;;;;;4989287;28;20032;-85
2022/04/08 08:59:44;;;;;;;1.52;0.82;;;10.80;90.60;;;;;;4992288;28;20033;-86
2022/04/08 09:02:11;;;;;;;1.87;0.90;;;10.90;90.50;;;;;;4998665;28;20025;-85
2022/04/08 09:04:41;;;;;;;2.90;0.90;;;10.90;90.40;;;;;;4994760;28;20030;-85
2022/04/08 09:07:24;;;;;;;2.13;0.85;;;10.90;90.10;;;;;;4976243;28;20202;-86
2022/04/08 09:09:52;;;;;;;2.15;0.90;;;10.90;90.40;;;;;;4988357;28;20145;-86
2022/04/08 09:12:18;;;;;;;2.97;0.88;;;10.90;90.10;;;;;;5003352;28;20486;-85
2022/04/08 09:14:49;;;;;;;2.90;0.80;;;11.00;90.30;;;;;;4977595;28;20064;-86
2022/04/08 09:17:17;;;;;;;2.42;1.00;;;10.90;89.90;;;;;;4994587;28;20030;-85
2022/04/08 09:19:47;;;;;;;1.65;0.80;;;11.00;90.10;;;;;;5009725;28;20437;-85
2022/04/08 09:22:13;;;;;;;2.17;0.80;;;11.00;89.50;;;;;;5015587;28;20026;-86
2022/04/08 09:24:39;;;;;;;1.47;0.80;;;11.00;89.60;;;;;;5008660;28;20021;-86
2022/04/08 09:27:04;;;;;;;1.98;0.80;;;11.00;89.50;;;;;;5004335;28;20034;-85
2022/04/08 09:29:30;;;;;;;2.53;0.90;;;11.00;89.40;;;;;;4996970;28;20033;-85
2022/04/08 09:31:57;;;;;;;1.60;1.00;;;11.00;89.20;;;;;;4962793;28;20025;-85
2022/04/08 09:34:23;;;;;;;1.55;0.95;;;11.00;89.50;;;;;;5003951;28;20029;-86
2022/04/08 09:36:49;;;;;;;0.90;0.80;;;11.00;89.80;;;;;;5016693;28;20038;-86
2022/04/08 09:39:16;;;;;;;2.47;0.80;;;11.00;89.60;;;;;;4991267;28;20124;-86
2022/04/08 09:41:53;;;;;;;1.52;0.90;;;11.00;89.60;;;;;;4978894;28;20030;-85
2022/04/08 09:44:25;;;;;;;4.15;1.13;;;11.00;88.30;;;;;;5009505;28;20084;-85
2022/04/08 09:46:51;;;;;;;1.92;0.98;;;11.00;87.80;;;;;;4979695;28;20061;-86
2022/04/08 09:49:17;;;;;;;1.80;1.00;;;11.10;89.00;;;;;;4995978;28;20117;-85
2022/04/08 09:51:42;;;;;;;1.85;1.00;;;11.10;88.60;;;;;;4985429;28;20084;-85
2022/04/08 09:54:15;;;;;;;1.38;0.80;;;11.10;88.50;;;;;;4986893;28;20220;-85
2022/04/08 09:56:43;;;;;;;1.67;0.90;;;11.10;87.50;;;;;;4991405;28;20084;-86
2022/04/08 09:59:32;;;;;;;1.25;0.80;;;11.00;88.50;;;;;;4995634;28;20732;-85
2022/04/08 10:01:58;;;;;;;1.45;0.85;;;11.10;84.00;;;;;;4979996;28;20266;-85
2022/04/08 10:04:25;;;;;;;2.03;0.80;;;11.10;88.00;;;;;;4978374;28;20635;-86
2022/04/08 10:06:50;;;;;;;1.95;1.23;;;11.10;88.20;;;;;;5001257;28;20029;-85
2022/04/08 10:09:19;;;;;;;1.77;0.90;;;11.10;88.70;;;;;;4990054;28;20091;-86
2022/04/08 10:11:57;;;;;;;2.95;0.90;;;11.20;88.70;;;;;;5001211;28;20033;-85
2022/04/08 10:14:30;;;;;;;1.50;0.80;;;11.20;87.70;;;;;;4987094;28;20034;-87
2022/04/08 10:16:57;;;;;;;1.23;0.80;;;11.30;88.60;;;;;;4982324;28;20034;-86
2022/04/08 10:19:23;;;;;;;1.97;0.70;;;11.30;88.10;;;;;;4996118;28;20084;-87
2022/04/08 10:21:54;;;;;;;2.85;0.90;;;11.30;88.10;;;;;;4985907;28;20030;-85
2022/04/08 10:24:25;;;;;;;1.85;0.80;;;11.40;87.20;;;;;;4992982;28;20022;-86
2022/04/08 10:27:14;;;;;;;1.98;0.80;;;11.30;86.80;;;;;;5011076;28;20525;-85
2022/04/08 10:29:40;;;;;;;2.08;0.90;;;11.40;86.60;;;;;;4984659;28;20659;-85
2022/04/08 10:32:14;;;;;;;2.20;0.90;;;11.40;87.70;;;;;;4988619;28;20608;-85
2022/04/08 10:34:40;;;;;;;1.77;1.00;;;11.40;85.90;;;;;;5014440;28;20080;-85
2022/04/08 10:37:29;;;;;;;2.22;0.90;;;11.40;87.90;;;;;;5005820;28;20034;-85
2022/04/08 10:40:02;;;;;;;2.03;0.90;;;11.50;85.90;;;;;;4985461;28;20310;-85
2022/04/08 10:42:28;;;;;;;2.55;1.00;;;11.50;87.70;;;;;;4983844;28;20022;-85
2022/04/08 10:44:54;;;;;;;1.55;0.98;;;11.50;87.80;;;;;;5002892;28;20438;-85
2022/04/08 10:47:27;;;;;;;2.10;1.10;;;11.50;87.70;;;;;;4999905;28;20075;-84
2022/04/08 10:49:58;;;;;;;1.40;1.00;;;11.60;88.40;;;;;;5003943;28;20099;-85
2022/04/08 10:52:27;;;;;;;2.35;0.90;;;11.60;88.20;;;;;;4992796;28;20022;-83
2022/04/08 10:55:05;;;;;;;2.00;1.10;;;11.60;88.50;;;;;;4992167;28;20383;-84
2022/04/08 10:57:45;;;;;;;1.48;0.90;;;11.60;86.60;;;;;;5025213;28;20108;-84
2022/04/08 11:00:14;;;;;;;1.58;1.00;;;11.60;87.20;;;;;;4994615;28;20037;-84
2022/04/08 11:02:42;;;;;;;2.40;0.90;;;11.70;88.20;;;;;;5020666;28;20311;-85
2022/04/08 11:05:10;;;;;;;1.35;0.80;;;11.70;89.20;;;;;;4968608;28;20155;-84
2022/04/08 11:07:44;;;;;;;2.45;1.00;;;11.70;88.30;;;;;;5000595;28;20029;-84
2022/04/08 11:10:20;;;;;;;1.42;0.85;;;11.70;87.90;;;;;;4951639;28;20021;-85
2022/04/08 11:12:56;;;;;;;2.35;0.98;;;11.70;88.90;;;;;;4991694;28;20244;-84
2022/04/08 11:15:23;;;;;;;2.00;0.80;;;11.70;88.00;;;;;;4968149;28;20478;-85
2022/04/08 11:17:50;;;;;;;2.63;0.70;;;11.80;88.70;;;;;;4994952;28;20038;-84
2022/04/08 11:20:21;;;;;;;1.75;0.90;;;11.80;88.60;;;;;;4979386;28;20040;-85
2022/04/08 11:22:52;;;;;;;2.85;0.90;;;11.80;87.50;;;;;;5011237;28;20177;-85
2022/04/08 11:25:29;;;;;;;2.17;0.90;;;11.90;87.30;;;;;;4966518;28;20111;-86
2022/04/08 11:28:02;;;;;;;1.73;0.70;;;12.00;86.20;;;;;;4962938;28;20057;-84
2022/04/08 11:30:30;;;;;;;1.05;0.70;;;12.00;87.50;;;;;;4980271;28;20305;-84
2022/04/08 11:32:57;;;;;;;2.22;0.90;;;12.00;88.30;;;;;;5006861;28;20057;-85
2022/04/08 11:35:26;;;;;;;1.52;0.80;;;12.00;88.10;;;;;;4972803;28;20121;-85
2022/04/08 11:37:51;;;;;;;1.83;0.95;;;12.10;88.30;;;;;;4989467;28;20030;-86
2022/04/08 11:40:18;;;;;;;3.43;0.80;;;12.10;88.50;;;;;;4976676;28;20607;-85
2022/04/08 11:42:48;;;;;;;1.77;0.85;;;12.20;88.50;;;;;;5016502;28;20430;-85
2022/04/08 11:45:15;;;;;;;2.22;0.98;;;12.20;87.80;;;;;;4987308;28;20231;-85
2022/04/08 11:47:49;;;;;;;3.43;0.70;;;12.30;88.00;;;;;;4984286;28;20026;-86
2022/04/08 11:50:24;;;;;;;2.47;0.63;;;12.40;86.80;;;;;;4960547;28;20242;-85
2022/04/08 11:52:55;;;;;;;3.03;1.00;;;12.40;86.00;;;;;;4996607;28;20029;-85
2022/04/08 11:55:25;;;;;;;2.38;0.65;;;12.50;86.60;;;;;;4971683;28;20026;-86
2022/04/08 11:57:52;;;;;;;2.13;0.98;;;12.50;86.30;;;;;;4987337;28;20037;-85
2022/04/08 12:00:25;;;;;;;3.37;1.00;;;12.50;87.50;;;;;;4974655;28;20591;-85
2022/04/08 12:02:51;;;;;;;1.75;0.80;;;12.60;86.20;;;;;;4978679;28;20029;-85
2022/04/08 12:05:29;;;;;;;2.33;0.70;;;12.60;87.60;;;;;;4963530;28;20061;-84
2022/04/08 12:07:59;;;;;;;1.30;0.90;;;12.70;86.60;;;;;;4984403;28;20022;-86
2022/04/08 12:10:25;;;;;;;1.92;0.90;;;12.70;87.60;;;;;;5011022;28;20042;-86
2022/04/08 12:12:52;;;;;;;1.70;0.80;;;12.70;87.70;;;;;;4988926;28;20034;-83
2022/04/08 12:15:24;;;;;;;2.20;0.93;;;12.80;87.70;;;;;;4985506;28;20092;-85
2022/04/08 12:17:50;;;;;;;1.95;0.90;;;12.80;86.10;;;;;;4970220;28;20516;-85
2022/04/08 12:20:18;;;;;;;2.20;0.73;;;12.80;86.80;;;;;;4990025;28;20267;-85
2022/04/08 12:22:48;;;;;;;2.03;0.80;;;12.80;86.60;;;;;;5001630;28;20034;-85
2022/04/08 12:25:17;;;;;;;2.60;1.00;;;12.80;86.10;;;;;;4991985;28;20026;-86
2022/04/08 12:27:42;;;;;;;2.53;0.88;;;12.90;87.60;;;;;;4976366;28;20042;-86
2022/04/08 12:30:08;;;;;;;1.30;0.80;;;12.90;87.90;;;;;;5005074;28;20045;-86
2022/04/08 12:32:36;;;;;;;2.25;1.00;;;13.00;87.90;;;;;;4983743;28;20029;-85
2022/04/08 12:35:03;;;;;;;3.40;1.10;;;13.10;87.10;;;;;;5002319;28;20033;-85
2022/04/08 12:37:29;;;;;;;2.63;0.88;;;13.10;86.90;;;;;;5001682;28;20513;-85
2022/04/08 12:39:55;;;;;;;1.35;0.80;;;13.20;87.00;;;;;;5019201;28;20121;-85
2022/04/08 12:42:21;;;;;;;3.27;0.80;;;13.20;86.90;;;;;;4985230;28;20364;-85
2022/04/08 12:44:46;;;;;;;1.83;0.85;;;13.30;86.80;;;;;;5007633;28;20351;-86
2022/04/08 12:47:12;;;;;;;2.43;0.97;;;13.30;86.80;;;;;;4993864;28;20353;-85
2022/04/08 12:49:37;;;;;;;1.97;0.87;;;13.40;87.20;;;;;;4992252;28;20025;-85
2022/04/08 12:52:03;;;;;;;2.77;1.20;;;13.40;87.00;;;;;;4990336;28;20506;-85